Adams Corners, New York
Current Conditions -  °F | °C
As of 4:45 AM on Tuesday 21 Oct 2014 (Local Time) from KSWF Reporting Station
Light Rain Light Rain  
Wind Chill: 50°   Ceiling: 5000
Heat Index: 50°   Visibility: 10mi
Dew Point: 46°   Wind: 0mph
Humidity: 87%   Direction: NA
Pressure: 29.92"   Gusts: NA
Location:  41.3969°N, 73.8382°W
Report Text: KSWF 210845Z 00000KT 10SM -RA BKN050 10/08 A2992
Loading
Personal Weather Stations






























Interactive Weather Map New forecast layout! Learn more

10-Day Weather Forecast

Advertisements
Track Severe Weather on mobile